sensor_id;sensor_type;location;lat;lon;timestamp;P1;durP1;ratioP1;P2;durP2;ratioP2
73239;SDS011;61452;40.054;4.110;2024-03-23T00:57:13;4.15;;;2.50;;
73239;SDS011;61452;40.054;4.110;2024-03-23T01:02:14;2.95;;;2.35;;
73239;SDS011;61452;40.054;4.110;2024-03-23T01:07:15;3.22;;;2.20;;
73239;SDS011;61452;40.054;4.110;2024-03-23T01:12:16;4.68;;;2.50;;
73239;SDS011;61452;40.054;4.110;2024-03-23T01:17:17;2.92;;;2.20;;
73239;SDS011;61452;40.054;4.110;2024-03-23T01:22:19;4.03;;;2.53;;
73239;SDS011;61452;40.054;4.110;2024-03-23T01:27:20;3.38;;;2.63;;
73239;SDS011;61452;40.054;4.110;2024-03-23T01:32:21;3.38;;;2.40;;
73239;SDS011;61452;40.054;4.110;2024-03-23T01:37:22;3.45;;;2.83;;
73239;SDS011;61452;40.054;4.110;2024-03-23T01:42:23;4.05;;;2.42;;
73239;SDS011;61452;40.054;4.110;2024-03-23T01:47:24;4.10;;;2.30;;
73239;SDS011;61452;40.054;4.110;2024-03-23T01:52:26;2.92;;;2.05;;
73239;SDS011;61452;40.054;4.110;2024-03-23T01:57:28;3.95;;;2.60;;
73239;SDS011;61452;40.054;4.110;2024-03-23T02:02:29;3.70;;;3.00;;
73239;SDS011;61452;40.054;4.110;2024-03-23T02:07:30;2.95;;;2.40;;
73239;SDS011;61452;40.054;4.110;2024-03-23T02:12:31;2.92;;;2.15;;
73239;SDS011;61452;40.054;4.110;2024-03-23T02:17:33;3.22;;;2.42;;
73239;SDS011;61452;40.054;4.110;2024-03-23T02:22:36;3.47;;;2.47;;
73239;SDS011;61452;40.054;4.110;2024-03-23T02:27:38;4.72;;;2.60;;
73239;SDS011;61452;40.054;4.110;2024-03-23T02:32:40;3.95;;;2.28;;
73239;SDS011;61452;40.054;4.110;2024-03-23T02:37:41;3.17;;;2.45;;
73239;SDS011;61452;40.054;4.110;2024-03-23T02:42:43;3.20;;;2.42;;
73239;SDS011;61452;40.054;4.110;2024-03-23T02:47:44;3.67;;;2.30;;
73239;SDS011;61452;40.054;4.110;2024-03-23T02:52:45;3.42;;;2.40;;
73239;SDS011;61452;40.054;4.110;2024-03-23T02:57:46;3.17;;;2.33;;
73239;SDS011;61452;40.054;4.110;2024-03-23T03:02:48;3.42;;;2.17;;
73239;SDS011;61452;40.054;4.110;2024-03-23T03:07:49;2.75;;;2.50;;
73239;SDS011;61452;40.054;4.110;2024-03-23T03:12:50;2.92;;;2.28;;
73239;SDS011;61452;40.054;4.110;2024-03-23T03:17:51;3.92;;;2.60;;
73239;SDS011;61452;40.054;4.110;2024-03-23T03:22:52;2.83;;;2.35;;
73239;SDS011;61452;40.054;4.110;2024-03-23T03:27:54;3.30;;;2.30;;
73239;SDS011;61452;40.054;4.110;2024-03-23T03:32:55;2.67;;;2.30;;
73239;SDS011;61452;40.054;4.110;2024-03-23T03:37:56;2.97;;;2.10;;
73239;SDS011;61452;40.054;4.110;2024-03-23T03:42:57;3.45;;;2.78;;
73239;SDS011;61452;40.054;4.110;2024-03-23T03:47:58;3.15;;;2.40;;
73239;SDS011;61452;40.054;4.110;2024-03-23T03:52:59;3.75;;;2.65;;
73239;SDS011;61452;40.054;4.110;2024-03-23T03:58:00;3.65;;;2.22;;
73239;SDS011;61452;40.054;4.110;2024-03-23T04:03:02;2.90;;;2.15;;
73239;SDS011;61452;40.054;4.110;2024-03-23T04:08:03;2.88;;;2.20;;
73239;SDS011;61452;40.054;4.110;2024-03-23T04:13:05;3.55;;;2.67;;
73239;SDS011;61452;40.054;4.110;2024-03-23T04:18:06;4.28;;;2.75;;
73239;SDS011;61452;40.054;4.110;2024-03-23T04:23:07;4.18;;;2.25;;
73239;SDS011;61452;40.054;4.110;2024-03-23T04:28:08;4.00;;;2.45;;
73239;SDS011;61452;40.054;4.110;2024-03-23T04:33:09;3.67;;;2.47;;
73239;SDS011;61452;40.054;4.110;2024-03-23T04:38:11;3.00;;;2.15;;
73239;SDS011;61452;40.054;4.110;2024-03-23T04:43:12;3.33;;;2.40;;
73239;SDS011;61452;40.054;4.110;2024-03-23T04:48:13;2.92;;;2.58;;
73239;SDS011;61452;40.054;4.110;2024-03-23T04:53:14;3.90;;;2.42;;
73239;SDS011;61452;40.054;4.110;2024-03-23T04:58:16;2.75;;;2.22;;
73239;SDS011;61452;40.054;4.110;2024-03-23T05:03:17;3.28;;;2.40;;
73239;SDS011;61452;40.054;4.110;2024-03-23T05:08:20;2.88;;;2.33;;
73239;SDS011;61452;40.054;4.110;2024-03-23T05:13:21;3.33;;;2.10;;
73239;SDS011;61452;40.054;4.110;2024-03-23T05:18:22;4.00;;;2.40;;
73239;SDS011;61452;40.054;4.110;2024-03-23T05:23:23;3.03;;;2.15;;
73239;SDS011;61452;40.054;4.110;2024-03-23T05:28:25;2.75;;;2.15;;
73239;SDS011;61452;40.054;4.110;2024-03-23T05:33:26;3.38;;;2.17;;
73239;SDS011;61452;40.054;4.110;2024-03-23T05:38:27;3.03;;;2.30;;
73239;SDS011;61452;40.054;4.110;2024-03-23T05:43:31;2.88;;;2.40;;
73239;SDS011;61452;40.054;4.110;2024-03-23T05:48:32;3.38;;;2.90;;
73239;SDS011;61452;40.054;4.110;2024-03-23T05:53:34;2.97;;;2.42;;
73239;SDS011;61452;40.054;4.110;2024-03-23T05:58:35;2.58;;;2.08;;
73239;SDS011;61452;40.054;4.110;2024-03-23T06:03:36;2.85;;;2.30;;
73239;SDS011;61452;40.054;4.110;2024-03-23T06:08:37;3.35;;;2.30;;
73239;SDS011;61452;40.054;4.110;2024-03-23T06:13:39;2.78;;;2.20;;
73239;SDS011;61452;40.054;4.110;2024-03-23T06:18:40;3.38;;;2.20;;
73239;SDS011;61452;40.054;4.110;2024-03-23T06:23:41;2.60;;;2.00;;
73239;SDS011;61452;40.054;4.110;2024-03-23T06:28:43;2.53;;;1.92;;
73239;SDS011;61452;40.054;4.110;2024-03-23T06:33:44;3.30;;;2.30;;
73239;SDS011;61452;40.054;4.110;2024-03-23T06:38:45;2.50;;;1.95;;
73239;SDS011;61452;40.054;4.110;2024-03-23T06:43:46;2.58;;;1.80;;
73239;SDS011;61452;40.054;4.110;2024-03-23T06:48:47;2.47;;;1.98;;
73239;SDS011;61452;40.054;4.110;2024-03-23T06:53:49;3.00;;;2.05;;
73239;SDS011;61452;40.054;4.110;2024-03-23T06:58:50;2.80;;;2.05;;
73239;SDS011;61452;40.054;4.110;2024-03-23T07:03:51;2.40;;;2.05;;
73239;SDS011;61452;40.054;4.110;2024-03-23T07:08:53;2.47;;;2.03;;
73239;SDS011;61452;40.054;4.110;2024-03-23T07:13:55;3.30;;;2.70;;
73239;SDS011;61452;40.054;4.110;2024-03-23T07:18:56;2.53;;;2.22;;
73239;SDS011;61452;40.054;4.110;2024-03-23T07:23:57;2.92;;;2.22;;
73239;SDS011;61452;40.054;4.110;2024-03-23T07:28:58;2.53;;;2.22;;
73239;SDS011;61452;40.054;4.110;2024-03-23T07:33:59;3.15;;;2.30;;
73239;SDS011;61452;40.054;4.110;2024-03-23T07:39:00;3.00;;;1.98;;
73239;SDS011;61452;40.054;4.110;2024-03-23T07:44:01;2.70;;;2.20;;
73239;SDS011;61452;40.054;4.110;2024-03-23T07:49:04;3.67;;;2.10;;
73239;SDS011;61452;40.054;4.110;2024-03-23T07:54:05;2.85;;;2.10;;
73239;SDS011;61452;40.054;4.110;2024-03-23T07:59:06;2.40;;;2.00;;
73239;SDS011;61452;40.054;4.110;2024-03-23T08:04:07;2.33;;;1.95;;
73239;SDS011;61452;40.054;4.110;2024-03-23T08:09:08;2.90;;;2.00;;
73239;SDS011;61452;40.054;4.110;2024-03-23T08:14:09;2.72;;;2.20;;
73239;SDS011;61452;40.054;4.110;2024-03-23T08:19:10;2.13;;;1.77;;
73239;SDS011;61452;40.054;4.110;2024-03-23T08:24:11;2.88;;;2.10;;
73239;SDS011;61452;40.054;4.110;2024-03-23T08:29:12;2.85;;;2.33;;
73239;SDS011;61452;40.054;4.110;2024-03-23T08:34:13;2.20;;;1.75;;
73239;SDS011;61452;40.054;4.110;2024-03-23T08:39:14;3.92;;;2.13;;
73239;SDS011;61452;40.054;4.110;2024-03-23T08:44:15;2.25;;;2.00;;
73239;SDS011;61452;40.054;4.110;2024-03-23T08:49:17;2.90;;;2.28;;
73239;SDS011;61452;40.054;4.110;2024-03-23T08:54:19;3.00;;;2.17;;
73239;SDS011;61452;40.054;4.110;2024-03-23T08:59:20;2.38;;;2.00;;
73239;SDS011;61452;40.054;4.110;2024-03-23T09:04:24;2.83;;;1.95;;
73239;SDS011;61452;40.054;4.110;2024-03-23T09:09:25;3.22;;;2.10;;
73239;SDS011;61452;40.054;4.110;2024-03-23T09:14:26;3.58;;;2.30;;
73239;SDS011;61452;40.054;4.110;2024-03-23T09:19:28;3.10;;;2.13;;
73239;SDS011;61452;40.054;4.110;2024-03-23T09:24:30;2.13;;;1.80;;
73239;SDS011;61452;40.054;4.110;2024-03-23T09:29:32;3.00;;;1.80;;
73239;SDS011;61452;40.054;4.110;2024-03-23T09:34:34;4.00;;;2.25;;
73239;SDS011;61452;40.054;4.110;2024-03-23T09:39:34;3.40;;;1.95;;
73239;SDS011;61452;40.054;4.110;2024-03-23T09:44:36;2.83;;;2.30;;
73239;SDS011;61452;40.054;4.110;2024-03-23T09:49:37;2.55;;;2.17;;
73239;SDS011;61452;40.054;4.110;2024-03-23T09:54:38;2.50;;;1.60;;
73239;SDS011;61452;40.054;4.110;2024-03-23T09:59:39;2.40;;;2.20;;
73239;SDS011;61452;40.054;4.110;2024-03-23T10:04:41;3.88;;;2.10;;
73239;SDS011;61452;40.054;4.110;2024-03-23T10:09:42;2.30;;;2.10;;
73239;SDS011;61452;40.054;4.110;2024-03-23T10:14:43;2.88;;;2.22;;
73239;SDS011;61452;40.054;4.110;2024-03-23T10:19:45;2.17;;;1.88;;
73239;SDS011;61452;40.054;4.110;2024-03-23T10:24:48;2.85;;;2.13;;
73239;SDS011;61452;40.054;4.110;2024-03-23T10:29:50;2.50;;;1.98;;
73239;SDS011;61452;40.054;4.110;2024-03-23T10:34:51;2.22;;;1.88;;
73239;SDS011;61452;40.054;4.110;2024-03-23T10:39:52;2.58;;;2.08;;
73239;SDS011;61452;40.054;4.110;2024-03-23T10:44:53;2.95;;;2.30;;
73239;SDS011;61452;40.054;4.110;2024-03-23T10:49:56;3.20;;;1.90;;
73239;SDS011;61452;40.054;4.110;2024-03-23T10:54:57;3.78;;;2.20;;
73239;SDS011;61452;40.054;4.110;2024-03-23T11:00:02;2.58;;;1.95;;
73239;SDS011;61452;40.054;4.110;2024-03-23T11:10:30;3.55;;;2.17;;
73239;SDS011;61452;40.054;4.110;2024-03-23T11:15:33;3.63;;;2.53;;
73239;SDS011;61452;40.054;4.110;2024-03-23T11:20:34;2.72;;;2.03;;
73239;SDS011;61452;40.054;4.110;2024-03-23T11:25:36;3.00;;;2.40;;
73239;SDS011;61452;40.054;4.110;2024-03-23T11:30:37;3.05;;;2.03;;
73239;SDS011;61452;40.054;4.110;2024-03-23T11:35:41;3.60;;;2.40;;
73239;SDS011;61452;40.054;4.110;2024-03-23T11:40:43;2.90;;;2.30;;
73239;SDS011;61452;40.054;4.110;2024-03-23T11:45:51;3.08;;;2.25;;
73239;SDS011;61452;40.054;4.110;2024-03-23T11:50:58;3.15;;;2.20;;
73239;SDS011;61452;40.054;4.110;2024-03-23T11:55:59;4.63;;;2.05;;
73239;SDS011;61452;40.054;4.110;2024-03-23T12:01:04;2.90;;;2.33;;
73239;SDS011;61452;40.054;4.110;2024-03-23T12:06:07;2.60;;;1.90;;
73239;SDS011;61452;40.054;4.110;2024-03-23T12:11:10;3.65;;;2.28;;
73239;SDS011;61452;40.054;4.110;2024-03-23T12:16:13;3.25;;;2.13;;
73239;SDS011;61452;40.054;4.110;2024-03-23T12:21:15;2.97;;;2.55;;
73239;SDS011;61452;40.054;4.110;2024-03-23T12:26:17;3.53;;;2.30;;
73239;SDS011;61452;40.054;4.110;2024-03-23T12:31:18;4.07;;;2.83;;
73239;SDS011;61452;40.054;4.110;2024-03-23T12:36:19;3.42;;;2.17;;
73239;SDS011;61452;40.054;4.110;2024-03-23T12:41:20;3.15;;;2.00;;
73239;SDS011;61452;40.054;4.110;2024-03-23T12:46:21;4.63;;;2.50;;
73239;SDS011;61452;40.054;4.110;2024-03-23T12:51:23;5.05;;;2.25;;
73239;SDS011;61452;40.054;4.110;2024-03-23T12:56:24;3.58;;;2.00;;
73239;SDS011;61452;40.054;4.110;2024-03-23T13:01:26;2.50;;;2.15;;
73239;SDS011;61452;40.054;4.110;2024-03-23T13:06:27;5.30;;;2.42;;
73239;SDS011;61452;40.054;4.110;2024-03-23T13:11:32;3.70;;;1.77;;
73239;SDS011;61452;40.054;4.110;2024-03-23T13:16:33;4.50;;;2.30;;
73239;SDS011;61452;40.054;4.110;2024-03-23T13:21:34;5.30;;;2.20;;
73239;SDS011;61452;40.054;4.110;2024-03-23T13:26:36;3.75;;;2.20;;
73239;SDS011;61452;40.054;4.110;2024-03-23T13:31:37;4.38;;;2.17;;
73239;SDS011;61452;40.054;4.110;2024-03-23T13:36:38;4.05;;;1.80;;
73239;SDS011;61452;40.054;4.110;2024-03-23T13:41:45;3.47;;;1.70;;
73239;SDS011;61452;40.054;4.110;2024-03-23T13:46:46;4.38;;;1.83;;
73239;SDS011;61452;40.054;4.110;2024-03-23T13:51:47;4.15;;;2.05;;
73239;SDS011;61452;40.054;4.110;2024-03-23T13:56:49;4.93;;;2.10;;
73239;SDS011;61452;40.054;4.110;2024-03-23T14:01:51;3.63;;;1.70;;
73239;SDS011;61452;40.054;4.110;2024-03-23T14:06:52;3.58;;;1.90;;
73239;SDS011;61452;40.054;4.110;2024-03-23T14:11:53;5.57;;;2.25;;
73239;SDS011;61452;40.054;4.110;2024-03-23T14:16:54;3.95;;;2.05;;
73239;SDS011;61452;40.054;4.110;2024-03-23T14:21:55;3.20;;;1.83;;
73239;SDS011;61452;40.054;4.110;2024-03-23T14:26:56;4.00;;;1.92;;
73239;SDS011;61452;40.054;4.110;2024-03-23T14:31:57;3.75;;;1.83;;
73239;SDS011;61452;40.054;4.110;2024-03-23T14:36:59;3.90;;;1.77;;
73239;SDS011;61452;40.054;4.110;2024-03-23T14:42:00;2.72;;;2.00;;
73239;SDS011;61452;40.054;4.110;2024-03-23T14:47:02;2.53;;;1.17;;
73239;SDS011;61452;40.054;4.110;2024-03-23T14:52:11;2.05;;;1.45;;
73239;SDS011;61452;40.054;4.110;2024-03-23T14:57:12;3.58;;;1.60;;
73239;SDS011;61452;40.054;4.110;2024-03-23T15:02:13;4.00;;;1.85;;
73239;SDS011;61452;40.054;4.110;2024-03-23T15:07:15;3.88;;;1.77;;
73239;SDS011;61452;40.054;4.110;2024-03-23T15:12:16;4.10;;;2.35;;
73239;SDS011;61452;40.054;4.110;2024-03-23T15:17:17;3.90;;;1.90;;
73239;SDS011;61452;40.054;4.110;2024-03-23T15:22:19;5.25;;;1.92;;
73239;SDS011;61452;40.054;4.110;2024-03-23T15:27:22;3.08;;;1.50;;
73239;SDS011;61452;40.054;4.110;2024-03-23T15:32:23;3.75;;;1.80;;
73239;SDS011;61452;40.054;4.110;2024-03-23T15:37:24;3.80;;;1.58;;
73239;SDS011;61452;40.054;4.110;2024-03-23T15:42:25;4.35;;;1.65;;
73239;SDS011;61452;40.054;4.110;2024-03-23T15:47:26;4.85;;;1.35;;
73239;SDS011;61452;40.054;4.110;2024-03-23T15:52:27;2.70;;;1.30;;
73239;SDS011;61452;40.054;4.110;2024-03-23T15:57:28;3.65;;;1.50;;
73239;SDS011;61452;40.054;4.110;2024-03-23T16:02:29;3.33;;;1.70;;
73239;SDS011;61452;40.054;4.110;2024-03-23T16:07:31;1.90;;;1.17;;
73239;SDS011;61452;40.054;4.110;2024-03-23T16:12:32;2.10;;;1.27;;
73239;SDS011;61452;40.054;4.110;2024-03-23T16:17:33;3.28;;;1.40;;
73239;SDS011;61452;40.054;4.110;2024-03-23T16:22:36;3.47;;;1.42;;
73239;SDS011;61452;40.054;4.110;2024-03-23T16:27:37;2.42;;;1.13;;
73239;SDS011;61452;40.054;4.110;2024-03-23T16:32:38;3.45;;;1.20;;
73239;SDS011;61452;40.054;4.110;2024-03-23T16:37:40;3.60;;;1.60;;
73239;SDS011;61452;40.054;4.110;2024-03-23T16:42:41;1.80;;;1.13;;
73239;SDS011;61452;40.054;4.110;2024-03-23T16:47:43;2.17;;;1.50;;
73239;SDS011;61452;40.054;4.110;2024-03-23T16:52:45;2.85;;;1.20;;
73239;SDS011;61452;40.054;4.110;2024-03-23T16:57:46;2.65;;;1.42;;
73239;SDS011;61452;40.054;4.110;2024-03-23T17:02:48;1.63;;;1.02;;
73239;SDS011;61452;40.054;4.110;2024-03-23T17:07:49;2.50;;;1.08;;
73239;SDS011;61452;40.054;4.110;2024-03-23T17:12:50;2.05;;;0.90;;
73239;SDS011;61452;40.054;4.110;2024-03-23T17:17:51;3.70;;;1.25;;
73239;SDS011;61452;40.054;4.110;2024-03-23T17:22:54;2.22;;;1.10;;
73239;SDS011;61452;40.054;4.110;2024-03-23T17:27:56;3.05;;;1.35;;
73239;SDS011;61452;40.054;4.110;2024-03-23T17:32:57;2.70;;;1.55;;
73239;SDS011;61452;40.054;4.110;2024-03-23T17:37:58;3.80;;;1.23;;
73239;SDS011;61452;40.054;4.110;2024-03-23T17:42:59;2.78;;;1.17;;
73239;SDS011;61452;40.054;4.110;2024-03-23T17:48:00;2.85;;;0.93;;
73239;SDS011;61452;40.054;4.110;2024-03-23T17:53:01;3.05;;;1.10;;
73239;SDS011;61452;40.054;4.110;2024-03-23T17:58:02;1.73;;;1.10;;
73239;SDS011;61452;40.054;4.110;2024-03-23T18:03:04;2.00;;;1.02;;
73239;SDS011;61452;40.054;4.110;2024-03-23T18:08:05;1.85;;;0.90;;
73239;SDS011;61452;40.054;4.110;2024-03-23T18:13:06;1.65;;;0.90;;
73239;SDS011;61452;40.054;4.110;2024-03-23T18:18:07;2.13;;;1.00;;
73239;SDS011;61452;40.054;4.110;2024-03-23T18:23:10;1.95;;;1.13;;
73239;SDS011;61452;40.054;4.110;2024-03-23T18:28:11;1.52;;;0.88;;
73239;SDS011;61452;40.054;4.110;2024-03-23T18:33:12;1.40;;;1.02;;
73239;SDS011;61452;40.054;4.110;2024-03-23T18:38:13;1.90;;;0.73;;
73239;SDS011;61452;40.054;4.110;2024-03-23T18:43:14;1.80;;;0.77;;
73239;SDS011;61452;40.054;4.110;2024-03-23T18:48:16;2.63;;;1.00;;
73239;SDS011;61452;40.054;4.110;2024-03-23T18:53:17;1.50;;;0.88;;
73239;SDS011;61452;40.054;4.110;2024-03-23T18:58:18;2.15;;;1.20;;
73239;SDS011;61452;40.054;4.110;2024-03-23T19:03:20;1.55;;;1.00;;
73239;SDS011;61452;40.054;4.110;2024-03-23T19:08:21;1.75;;;0.98;;
73239;SDS011;61452;40.054;4.110;2024-03-23T19:13:23;1.67;;;0.90;;
73239;SDS011;61452;40.054;4.110;2024-03-23T19:18:25;1.98;;;0.82;;
73239;SDS011;61452;40.054;4.110;2024-03-23T19:23:27;2.47;;;0.82;;
73239;SDS011;61452;40.054;4.110;2024-03-23T19:28:31;1.75;;;0.73;;
73239;SDS011;61452;40.054;4.110;2024-03-23T19:33:32;1.38;;;0.75;;
73239;SDS011;61452;40.054;4.110;2024-03-23T19:38:34;1.95;;;0.98;;
73239;SDS011;61452;40.054;4.110;2024-03-23T19:43:35;2.58;;;0.82;;
73239;SDS011;61452;40.054;4.110;2024-03-23T19:48:36;1.70;;;0.80;;
73239;SDS011;61452;40.054;4.110;2024-03-23T19:53:37;1.92;;;1.05;;
73239;SDS011;61452;40.054;4.110;2024-03-23T19:58:38;1.38;;;0.70;;
73239;SDS011;61452;40.054;4.110;2024-03-23T20:03:40;1.10;;;0.80;;
73239;SDS011;61452;40.054;4.110;2024-03-23T20:08:41;2.80;;;0.88;;
73239;SDS011;61452;40.054;4.110;2024-03-23T20:13:43;1.50;;;0.80;;
73239;SDS011;61452;40.054;4.110;2024-03-23T20:18:44;2.00;;;0.70;;
73239;SDS011;61452;40.054;4.110;2024-03-23T20:23:45;1.30;;;0.75;;
73239;SDS011;61452;40.054;4.110;2024-03-23T20:28:46;1.73;;;1.00;;
73239;SDS011;61452;40.054;4.110;2024-03-23T20:33:47;1.88;;;0.82;;
73239;SDS011;61452;40.054;4.110;2024-03-23T20:38:49;1.13;;;0.55;;
73239;SDS011;61452;40.054;4.110;2024-03-23T20:43:50;1.98;;;0.90;;
73239;SDS011;61452;40.054;4.110;2024-03-23T20:48:51;0.90;;;0.63;;
73239;SDS011;61452;40.054;4.110;2024-03-23T20:53:52;2.15;;;0.80;;
73239;SDS011;61452;40.054;4.110;2024-03-23T20:58:53;1.40;;;0.73;;
73239;SDS011;61452;40.054;4.110;2024-03-23T21:03:54;1.85;;;1.00;;
73239;SDS011;61452;40.054;4.110;2024-03-23T21:08:56;1.08;;;0.70;;
73239;SDS011;61452;40.054;4.110;2024-03-23T21:13:57;1.35;;;0.82;;
73239;SDS011;61452;40.054;4.110;2024-03-23T21:18:58;1.40;;;0.70;;
73239;SDS011;61452;40.054;4.110;2024-03-23T21:23:59;1.30;;;0.73;;
73239;SDS011;61452;40.054;4.110;2024-03-23T21:29:01;1.83;;;0.70;;
73239;SDS011;61452;40.054;4.110;2024-03-23T21:34:02;2.03;;;0.98;;
73239;SDS011;61452;40.054;4.110;2024-03-23T21:39:03;1.30;;;0.73;;
73239;SDS011;61452;40.054;4.110;2024-03-23T21:44:07;0.90;;;0.60;;
73239;SDS011;61452;40.054;4.110;2024-03-23T21:49:09;3.13;;;0.90;;
73239;SDS011;61452;40.054;4.110;2024-03-23T21:54:10;2.35;;;0.95;;
73239;SDS011;61452;40.054;4.110;2024-03-23T21:59:11;1.67;;;0.65;;
73239;SDS011;61452;40.054;4.110;2024-03-23T22:04:12;1.55;;;0.82;;
73239;SDS011;61452;40.054;4.110;2024-03-23T22:09:13;2.17;;;0.70;;
73239;SDS011;61452;40.054;4.110;2024-03-23T22:14:14;2.28;;;0.93;;
73239;SDS011;61452;40.054;4.110;2024-03-23T22:19:15;1.40;;;0.75;;
73239;SDS011;61452;40.054;4.110;2024-03-23T22:24:17;1.75;;;0.70;;
73239;SDS011;61452;40.054;4.110;2024-03-23T22:29:19;1.70;;;0.57;;
73239;SDS011;61452;40.054;4.110;2024-03-23T22:34:20;1.08;;;0.63;;
73239;SDS011;61452;40.054;4.110;2024-03-23T22:39:22;2.55;;;0.90;;
73239;SDS011;61452;40.054;4.110;2024-03-23T22:44:23;1.38;;;0.70;;
73239;SDS011;61452;40.054;4.110;2024-03-23T22:49:24;1.17;;;0.70;;
73239;SDS011;61452;40.054;4.110;2024-03-23T22:54:25;2.45;;;0.70;;
73239;SDS011;61452;40.054;4.110;2024-03-23T22:59:27;1.42;;;0.52;;
73239;SDS011;61452;40.054;4.110;2024-03-23T23:04:28;1.77;;;0.95;;
73239;SDS011;61452;40.054;4.110;2024-03-23T23:09:34;0.73;;;0.52;;
73239;SDS011;61452;40.054;4.110;2024-03-23T23:14:35;0.85;;;0.50;;
73239;SDS011;61452;40.054;4.110;2024-03-23T23:19:36;1.65;;;0.60;;
73239;SDS011;61452;40.054;4.110;2024-03-23T23:24:37;1.48;;;0.60;;
73239;SDS011;61452;40.054;4.110;2024-03-23T23:29:40;2.20;;;0.70;;
73239;SDS011;61452;40.054;4.110;2024-03-23T23:34:41;1.13;;;0.60;;
73239;SDS011;61452;40.054;4.110;2024-03-23T23:39:42;2.90;;;1.00;;
73239;SDS011;61452;40.054;4.110;2024-03-23T23:44:43;2.60;;;0.70;;
73239;SDS011;61452;40.054;4.110;2024-03-23T23:49:44;1.02;;;0.70;;
73239;SDS011;61452;40.054;4.110;2024-03-23T23:54:46;1.83;;;0.70;;
73239;SDS011;61452;40.054;4.110;2024-03-23T23:59:47;1.70;;;0.80;;
